createdAt,value
2022-11-29T00:01:24.184Z,20.97
2022-11-29T00:03:51.819Z,19.77
2022-11-29T00:06:21.262Z,20.63
2022-11-29T00:08:49.189Z,21.30
2022-11-29T00:11:35.865Z,20.63
2022-11-29T00:14:03.128Z,22.00
2022-11-29T00:16:29.980Z,21.57
2022-11-29T00:18:56.764Z,21.00
2022-11-29T00:21:23.482Z,24.07
2022-11-29T00:23:50.493Z,21.83
2022-11-29T00:26:17.653Z,22.70
2022-11-29T00:28:44.577Z,23.57
2022-11-29T00:31:20.050Z,23.57
2022-11-29T00:33:47.036Z,23.00
2022-11-29T00:36:14.689Z,22.20
2022-11-29T00:38:41.817Z,21.50
2022-11-29T00:41:09.294Z,23.30
2022-11-29T00:43:36.353Z,21.87
2022-11-29T00:46:04.013Z,22.80
2022-11-29T00:48:31.674Z,22.33
2022-11-29T00:50:58.617Z,21.47
2022-11-29T00:53:25.308Z,22.97
2022-11-29T00:55:52.932Z,22.53
2022-11-29T00:58:20.879Z,22.70
2022-11-29T01:00:47.841Z,23.67
2022-11-29T01:03:15.295Z,22.40
2022-11-29T01:05:42.963Z,21.70
2022-11-29T01:08:11.032Z,22.13
2022-11-29T01:10:37.942Z,22.77
2022-11-29T01:13:05.199Z,22.37
2022-11-29T01:15:32.236Z,21.37
2022-11-29T01:17:59.392Z,21.97
2022-11-29T01:20:26.785Z,21.60
2022-11-29T01:22:53.897Z,21.00
2022-11-29T01:25:20.822Z,22.50
2022-11-29T01:27:47.899Z,21.53
2022-11-29T01:30:15.111Z,21.30
2022-11-29T01:32:41.852Z,22.07
2022-11-29T01:35:09.020Z,24.23
2022-11-29T01:37:35.817Z,23.23
2022-11-29T01:40:02.937Z,22.77
2022-11-29T01:42:29.676Z,22.20
2022-11-29T01:45:21.094Z,21.67
2022-11-29T01:47:49.232Z,20.23
2022-11-29T01:50:16.445Z,21.47
2022-11-29T01:52:43.846Z,20.80
2022-11-29T01:55:10.912Z,21.10
2022-11-29T01:57:39.994Z,22.10
2022-11-29T02:00:16.923Z,20.73
2022-11-29T02:02:48.819Z,22.57
2022-11-29T02:05:18.549Z,21.20
2022-11-29T02:07:48.794Z,21.50
2022-11-29T02:10:16.628Z,20.90
2022-11-29T02:13:08.332Z,22.43
2022-11-29T02:16:05.065Z,22.13
2022-11-29T02:18:56.929Z,21.53
2022-11-29T02:21:43.502Z,21.07
2022-11-29T02:24:13.768Z,22.70
2022-11-29T02:26:52.439Z,23.07
2022-11-29T02:29:38.679Z,23.23
2022-11-29T02:32:42.966Z,22.53
2022-11-29T02:35:09.668Z,21.10
2022-11-29T02:37:54.903Z,21.50
2022-11-29T02:40:49.028Z,22.50
2022-11-29T02:43:29.963Z,24.03
2022-11-29T02:46:34.159Z,24.93
2022-11-29T02:49:22.387Z,24.73
2022-11-29T02:52:02.049Z,23.47
2022-11-29T02:54:42.810Z,24.50
2022-11-29T02:57:12.489Z,23.13
2022-11-29T03:00:00.795Z,23.00
2022-11-29T03:02:50.190Z,23.03
2022-11-29T03:05:16.975Z,24.70
2022-11-29T03:08:26.023Z,24.00
2022-11-29T03:11:15.814Z,23.20
2022-11-29T03:14:10.913Z,23.77
2022-11-29T03:17:01.753Z,26.17
2022-11-29T03:19:53.388Z,25.27
2022-11-29T03:22:48.083Z,26.07
2022-11-29T03:25:17.792Z,27.27
2022-11-29T03:28:08.011Z,25.20
2022-11-29T03:30:41.003Z,25.70
2022-11-29T03:33:24.708Z,24.43
2022-11-29T03:36:14.115Z,25.17
2022-11-29T03:38:43.919Z,28.00
2022-11-29T03:41:25.618Z,24.83
2022-11-29T03:44:03.727Z,26.67
2022-11-29T03:47:03.483Z,24.67
2022-11-29T03:49:45.997Z,26.00
2022-11-29T03:52:36.339Z,27.07
2022-11-29T03:55:09.152Z,28.00
2022-11-29T03:57:59.243Z,27.80
2022-11-29T04:00:28.788Z,26.17
2022-11-29T04:03:26.324Z,27.27
2022-11-29T04:06:17.046Z,28.20
2022-11-29T04:09:18.769Z,27.83
2022-11-29T04:12:03.941Z,27.57
2022-11-29T04:14:39.791Z,25.10
2022-11-29T04:17:47.780Z,28.00
2022-11-29T04:20:23.115Z,28.60
2022-11-29T04:23:27.312Z,28.00
2022-11-29T04:26:06.028Z,27.90
2022-11-29T04:28:38.480Z,26.93
2022-11-29T04:31:26.285Z,26.80
2022-11-29T04:34:23.803Z,27.50
2022-11-29T04:37:18.650Z,26.93
2022-11-29T04:40:36.761Z,27.63
2022-11-29T04:43:06.185Z,27.33
2022-11-29T04:46:00.875Z,27.80
2022-11-29T04:48:39.567Z,26.40
2022-11-29T04:51:34.002Z,27.40
2022-11-29T04:54:23.138Z,26.03
2022-11-29T04:57:04.391Z,28.27
2022-11-29T04:59:51.473Z,29.07
2022-11-29T05:02:31.880Z,27.17
2022-11-29T05:05:17.547Z,27.43
2022-11-29T05:07:58.202Z,27.20
2022-11-29T05:10:34.069Z,27.07
2022-11-29T05:13:00.730Z,26.67
2022-11-29T05:15:46.026Z,26.40
2022-11-29T05:18:50.169Z,25.80
2022-11-29T05:21:31.894Z,25.40
2022-11-29T05:24:19.533Z,24.67
2022-11-29T05:27:17.163Z,26.57
2022-11-29T05:29:56.619Z,26.40
2022-11-29T05:32:32.745Z,28.20
2022-11-29T05:35:27.293Z,29.23
2022-11-29T05:38:01.176Z,29.30
2022-11-29T05:40:33.741Z,30.27
2022-11-29T05:43:15.518Z,30.47
2022-11-29T05:46:09.451Z,30.30
2022-11-29T05:48:51.003Z,27.40
2022-11-29T05:51:36.631Z,27.77
2022-11-29T05:54:48.066Z,28.97
2022-11-29T05:57:39.989Z,27.17
2022-11-29T06:00:07.565Z,26.87
2022-11-29T06:03:03.416Z,27.60
2022-11-29T06:05:47.117Z,24.20
2022-11-29T06:08:46.113Z,25.13
2022-11-29T06:11:28.288Z,27.03
2022-11-29T06:14:07.594Z,26.13
2022-11-29T06:17:12.395Z,27.83
2022-11-29T06:20:04.342Z,30.30
2022-11-29T06:23:12.142Z,28.27
2022-11-29T06:26:16.867Z,27.63
2022-11-29T06:28:58.648Z,27.77
2022-11-29T06:31:32.061Z,26.83
2022-11-29T06:34:10.482Z,28.50
2022-11-29T06:36:53.706Z,29.23
2022-11-29T06:39:21.132Z,28.13
2022-11-29T06:41:48.846Z,27.40
2022-11-29T06:44:15.937Z,27.70
2022-11-29T06:47:08.581Z,29.00
2022-11-29T06:50:12.465Z,27.20
2022-11-29T06:52:54.543Z,27.37
2022-11-29T06:55:39.278Z,29.30
2022-11-29T06:58:30.308Z,27.10
2022-11-29T07:01:13.521Z,26.53
2022-11-29T07:04:12.322Z,27.13
2022-11-29T07:06:39.399Z,29.50
2022-11-29T07:09:18.442Z,30.13
2022-11-29T07:11:46.743Z,30.13
2022-11-29T07:14:14.499Z,28.50
2022-11-29T07:17:13.099Z,32.17
2022-11-29T07:20:38.273Z,31.17
2022-11-29T07:23:10.911Z,30.67
2022-11-29T07:25:53.767Z,30.60
2022-11-29T07:29:02.287Z,30.30
2022-11-29T07:31:29.036Z,30.50
2022-11-29T07:33:58.843Z,29.60
2022-11-29T07:36:31.483Z,30.50
2022-11-29T07:39:21.092Z,31.33
2022-11-29T07:41:53.846Z,33.13
2022-11-29T07:44:23.641Z,30.87
2022-11-29T07:46:50.434Z,29.40
2022-11-29T07:49:17.189Z,29.40
2022-11-29T07:51:44.323Z,29.60
2022-11-29T07:54:15.363Z,29.70
2022-11-29T07:56:42.049Z,29.70
2022-11-29T07:59:12.808Z,28.40
2022-11-29T08:01:40.234Z,27.60
2022-11-29T08:04:07.864Z,27.73
2022-11-29T08:06:35.074Z,28.30
2022-11-29T08:09:02.284Z,29.30
2022-11-29T08:11:29.034Z,28.70
2022-11-29T08:14:03.420Z,29.33
2022-11-29T08:16:30.263Z,28.40
2022-11-29T08:18:57.045Z,26.97
2022-11-29T08:21:24.011Z,26.30
2022-11-29T08:23:51.166Z,26.93
2022-11-29T08:26:19.629Z,26.57
2022-11-29T08:28:51.687Z,28.17
2022-11-29T08:31:19.742Z,26.20
2022-11-29T08:33:46.813Z,25.60
2022-11-29T08:36:17.100Z,28.93
2022-11-29T08:38:44.176Z,27.00
2022-11-29T08:41:14.049Z,26.67
2022-11-29T08:43:41.086Z,26.93
2022-11-29T08:46:09.127Z,27.60
2022-11-29T08:48:38.147Z,25.80
2022-11-29T08:51:06.693Z,27.13
2022-11-29T08:53:42.186Z,26.40
2022-11-29T08:59:07.510Z,26.00
2022-11-29T09:01:34.402Z,28.40
2022-11-29T09:04:05.090Z,29.00
2022-11-29T09:06:41.319Z,28.00
2022-11-29T09:09:08.482Z,27.80
2022-11-29T09:11:35.991Z,25.87
2022-11-29T09:14:06.092Z,26.37
2022-11-29T09:16:35.365Z,24.73
2022-11-29T09:19:03.242Z,27.40
2022-11-29T09:21:32.139Z,25.40
2022-11-29T09:24:00.759Z,24.27
2022-11-29T09:26:30.491Z,23.67
2022-11-29T09:29:01.212Z,26.00
2022-11-29T09:31:29.622Z,24.37
2022-11-29T09:33:57.064Z,24.67
2022-11-29T09:36:28.547Z,27.30
2022-11-29T09:38:56.350Z,25.00
2022-11-29T09:41:48.384Z,25.53
2022-11-29T09:44:34.398Z,27.40
2022-11-29T09:47:08.689Z,26.70
2022-11-29T09:49:44.616Z,25.57
2022-11-29T09:52:20.354Z,26.27
2022-11-29T09:55:02.850Z,27.37
2022-11-29T09:57:31.413Z,26.33
2022-11-29T10:00:03.295Z,26.50
2022-11-29T10:02:37.977Z,22.47
2022-11-29T10:05:16.449Z,22.87
2022-11-29T10:08:07.258Z,22.30
2022-11-29T10:10:46.282Z,24.27
2022-11-29T10:13:19.961Z,23.63
2022-11-29T10:15:52.930Z,23.87
2022-11-29T10:18:24.407Z,23.00
2022-11-29T10:20:54.620Z,25.30
2022-11-29T10:23:38.997Z,28.33
2022-11-29T10:26:08.075Z,25.87
2022-11-29T10:28:36.968Z,25.97
2022-11-29T10:31:21.365Z,25.13
2022-11-29T10:33:49.273Z,23.50
2022-11-29T10:36:42.807Z,23.03
2022-11-29T10:39:21.627Z,24.23
2022-11-29T10:41:55.549Z,22.97
2022-11-29T10:44:23.377Z,23.67
2022-11-29T10:46:50.498Z,23.60
2022-11-29T10:49:20.575Z,24.50
2022-11-29T10:51:47.629Z,24.97
2022-11-29T10:54:18.443Z,22.97
2022-11-29T10:56:45.809Z,23.47
2022-11-29T10:59:26.412Z,23.30
2022-11-29T11:01:53.841Z,23.40
2022-11-29T11:04:37.193Z,22.57
2022-11-29T11:07:06.189Z,24.07
2022-11-29T11:09:35.671Z,24.10
2022-11-29T11:12:06.497Z,24.30
2022-11-29T11:14:37.545Z,23.70
2022-11-29T11:17:22.545Z,24.63
2022-11-29T11:20:08.717Z,23.70
2022-11-29T11:22:39.757Z,25.87
2022-11-29T11:25:25.406Z,24.23
2022-11-29T11:27:52.422Z,23.87
2022-11-29T11:30:24.962Z,24.37
2022-11-29T11:33:31.328Z,23.07
2022-11-29T11:36:05.352Z,24.43
2022-11-29T11:38:34.183Z,25.87
2022-11-29T11:41:04.311Z,26.70
2022-11-29T11:43:32.152Z,25.90
2022-11-29T11:45:59.200Z,25.40
2022-11-29T11:48:26.388Z,25.73
2022-11-29T11:50:59.345Z,25.03
2022-11-29T11:53:37.426Z,27.60
2022-11-29T11:56:12.312Z,27.10
2022-11-29T11:58:56.630Z,26.97
2022-11-29T12:01:30.269Z,26.00
2022-11-29T12:04:05.594Z,28.07
2022-11-29T12:06:56.385Z,27.27
2022-11-29T12:09:47.335Z,25.03
2022-11-29T12:12:28.982Z,23.43
2022-11-29T12:15:34.292Z,24.00
2022-11-29T12:18:03.015Z,24.77
2022-11-29T12:20:40.648Z,24.47
2022-11-29T12:23:13.816Z,25.40
2022-11-29T12:25:50.872Z,24.20
2022-11-29T12:28:20.836Z,24.00
2022-11-29T12:30:56.842Z,24.33
2022-11-29T12:33:51.014Z,23.63
2022-11-29T12:36:18.492Z,24.40
2022-11-29T12:39:03.690Z,25.43
2022-11-29T12:41:54.389Z,25.80
2022-11-29T12:44:50.587Z,24.93
2022-11-29T12:47:36.083Z,27.93
2022-11-29T12:50:36.322Z,25.10
2022-11-29T12:53:16.748Z,26.43
2022-11-29T12:55:43.816Z,26.20
2022-11-29T12:58:29.544Z,25.40
2022-11-29T13:01:11.611Z,27.37
2022-11-29T13:04:15.423Z,26.07
2022-11-29T13:07:08.280Z,25.87
2022-11-29T13:09:53.700Z,26.53
2022-11-29T13:12:37.769Z,27.47
2022-11-29T13:15:23.350Z,26.53
2022-11-29T13:18:25.218Z,27.77
2022-11-29T13:21:12.169Z,27.97
2022-11-29T13:24:11.147Z,26.17
2022-11-29T13:26:40.088Z,26.83
2022-11-29T13:29:10.335Z,27.87
2022-11-29T13:31:38.991Z,26.00
2022-11-29T13:34:26.928Z,26.83
2022-11-29T13:37:08.045Z,26.13
2022-11-29T13:39:49.991Z,29.07
2022-11-29T13:42:32.151Z,27.57
2022-11-29T13:45:26.899Z,32.93
2022-11-29T13:48:00.012Z,29.47
2022-11-29T13:50:44.471Z,26.73
2022-11-29T13:53:23.628Z,29.23
2022-11-29T13:56:02.785Z,29.07
2022-11-29T13:58:30.735Z,31.67
2022-11-29T14:01:12.057Z,28.07
2022-11-29T14:04:00.569Z,29.70
2022-11-29T14:06:35.977Z,28.47
2022-11-29T14:09:19.263Z,30.17
2022-11-29T14:12:04.715Z,30.40
2022-11-29T14:14:54.620Z,28.17
2022-11-29T14:17:40.221Z,29.33
2022-11-29T14:20:25.424Z,29.77
2022-11-29T14:23:29.504Z,31.70
2022-11-29T14:25:59.399Z,29.77
2022-11-29T14:28:30.826Z,31.83
2022-11-29T14:31:02.569Z,30.37
2022-11-29T14:33:44.441Z,28.40
2022-11-29T14:36:29.646Z,30.43
2022-11-29T14:39:08.011Z,32.90
2022-11-29T14:42:14.672Z,29.47
2022-11-29T14:45:01.082Z,32.97
2022-11-29T14:47:38.992Z,31.33
2022-11-29T14:50:10.471Z,29.70
2022-11-29T14:52:49.953Z,28.30
2022-11-29T14:55:16.707Z,28.47
2022-11-29T14:58:14.776Z,28.13
2022-11-29T15:00:47.716Z,29.70
2022-11-29T15:03:20.574Z,31.33
2022-11-29T15:05:59.520Z,28.80
2022-11-29T15:09:05.004Z,39.80
2022-11-29T15:11:50.345Z,48.67
2022-11-29T15:14:32.172Z,48.20
2022-11-29T15:17:31.164Z,36.57
2022-11-29T15:19:58.423Z,33.10
2022-11-29T15:22:40.118Z,30.50
2022-11-29T15:25:17.535Z,32.87
2022-11-29T15:28:18.510Z,30.73
2022-11-29T15:30:45.404Z,33.00
2022-11-29T15:33:23.486Z,27.03
2022-11-29T15:35:56.463Z,28.10
2022-11-29T15:38:24.439Z,46.63
2022-11-29T15:40:53.673Z,39.57
2022-11-29T15:43:30.398Z,39.40
2022-11-29T15:45:58.181Z,37.20
2022-11-29T15:48:27.553Z,33.87
2022-11-29T15:51:12.802Z,31.80
2022-11-29T15:54:12.688Z,33.67
2022-11-29T15:56:44.872Z,32.40
2022-11-29T15:59:27.675Z,30.70
2022-11-29T16:01:57.330Z,37.50
2022-11-29T16:04:24.738Z,34.80
2022-11-29T16:06:54.521Z,33.90
2022-11-29T16:09:51.429Z,34.43
2022-11-29T16:12:18.758Z,36.47
2022-11-29T16:14:53.024Z,40.87
2022-11-29T16:17:20.987Z,33.33
2022-11-29T16:19:48.134Z,30.67
2022-11-29T16:22:15.279Z,28.70
2022-11-29T16:25:06.689Z,27.80
2022-11-29T16:27:35.339Z,29.00
2022-11-29T16:30:04.348Z,30.83
2022-11-29T16:32:37.872Z,29.40
2022-11-29T16:35:19.261Z,26.80
2022-11-29T16:37:47.003Z,27.07
2022-11-29T16:40:20.156Z,32.67
2022-11-29T16:43:08.421Z,28.80
2022-11-29T16:45:41.467Z,28.20
2022-11-29T16:48:30.339Z,23.27
2022-11-29T16:51:14.904Z,26.20
2022-11-29T16:53:44.074Z,26.93
2022-11-29T16:56:13.189Z,22.67
2022-11-29T16:59:17.129Z,19.67
2022-11-29T17:01:31.781Z,23.80
2022-11-29T17:04:00.136Z,21.37
2022-11-29T17:06:28.958Z,24.30
2022-11-29T17:08:57.334Z,22.97
2022-11-29T17:11:25.326Z,22.30
2022-11-29T17:13:52.816Z,22.80
2022-11-29T17:16:22.335Z,22.70
2022-11-29T17:18:49.871Z,21.20
2022-11-29T17:21:25.019Z,22.77
2022-11-29T17:23:53.463Z,24.50
2022-11-29T17:26:21.481Z,22.50
2022-11-29T17:28:51.883Z,24.07
2022-11-29T17:31:24.115Z,20.70
2022-11-29T17:33:51.418Z,31.30
2022-11-29T17:36:20.641Z,39.63
2022-11-29T17:38:48.231Z,26.93
2022-11-29T17:41:25.333Z,26.63
2022-11-29T17:43:53.996Z,21.97
2022-11-29T17:46:32.377Z,23.00
2022-11-29T17:49:01.016Z,24.77
2022-11-29T17:54:14.886Z,20.80
2022-11-29T17:56:41.679Z,22.37
2022-11-29T17:59:08.507Z,23.33
2022-11-29T18:01:36.120Z,21.70
2022-11-29T18:04:05.566Z,23.93
2022-11-29T18:06:40.590Z,20.53
2022-11-29T18:09:09.678Z,21.00
2022-11-29T18:11:47.520Z,23.47
2022-11-29T18:14:19.054Z,23.97
2022-11-29T18:16:46.127Z,21.40
2022-11-29T18:19:16.328Z,19.50
2022-11-29T18:21:43.314Z,21.07
2022-11-29T18:24:10.743Z,18.53
2022-11-29T18:26:38.324Z,18.90
2022-11-29T18:29:05.857Z,20.23
2022-11-29T18:31:35.950Z,20.70
2022-11-29T18:34:07.067Z,19.97
2022-11-29T18:36:36.645Z,19.60
2022-11-29T18:39:09.162Z,22.30
2022-11-29T18:41:37.211Z,22.10
2022-11-29T18:44:09.157Z,21.50
2022-11-29T18:46:37.471Z,19.63
2022-11-29T18:49:07.040Z,21.13
2022-11-29T18:51:35.067Z,19.73
2022-11-29T18:54:02.267Z,21.37
2022-11-29T18:56:31.392Z,22.63
2022-11-29T18:59:02.309Z,22.67
2022-11-29T19:01:31.879Z,21.37
2022-11-29T19:04:00.369Z,23.10
2022-11-29T19:06:39.043Z,20.30
2022-11-29T19:09:09.715Z,21.50
2022-11-29T19:11:36.603Z,22.07
2022-11-29T19:14:11.024Z,21.10
2022-11-29T19:16:40.192Z,21.77
2022-11-29T19:19:07.519Z,20.23
2022-11-29T19:21:34.795Z,18.80
2022-11-29T19:24:05.349Z,19.23
2022-11-29T19:26:33.629Z,19.70
2022-11-29T19:29:01.482Z,16.60
2022-11-29T19:31:28.827Z,18.73
2022-11-29T19:33:56.751Z,18.13
2022-11-29T19:36:26.794Z,18.93
2022-11-29T19:38:54.622Z,18.30
2022-11-29T19:41:33.136Z,18.43
2022-11-29T19:44:03.475Z,18.40
2022-11-29T19:46:35.987Z,18.70
2022-11-29T19:49:05.148Z,18.00
2022-11-29T19:51:32.491Z,17.50
2022-11-29T19:54:01.791Z,18.10
2022-11-29T19:56:31.357Z,19.03
2022-11-29T19:59:00.010Z,18.83
2022-11-29T20:01:37.862Z,18.00
2022-11-29T20:04:07.457Z,16.73
2022-11-29T20:06:34.591Z,18.27
2022-11-29T20:09:01.907Z,19.30
2022-11-29T20:11:28.908Z,18.53
2022-11-29T20:14:00.923Z,18.37
2022-11-29T20:16:29.580Z,16.80
2022-11-29T20:18:57.856Z,17.07
2022-11-29T20:21:32.396Z,18.30
2022-11-29T20:24:00.697Z,16.70
2022-11-29T20:26:28.853Z,18.07
2022-11-29T20:28:55.827Z,17.10
2022-11-29T20:31:24.060Z,18.40
2022-11-29T20:33:53.927Z,18.77
2022-11-29T20:36:48.442Z,19.03
2022-11-29T20:39:33.826Z,18.90
2022-11-29T20:42:28.651Z,18.50
2022-11-29T20:45:01.036Z,20.93
2022-11-29T20:47:47.389Z,19.73
2022-11-29T20:50:23.565Z,19.87
2022-11-29T20:53:14.911Z,20.37
2022-11-29T20:55:47.725Z,19.30
2022-11-29T20:58:15.730Z,20.30
2022-11-29T21:00:42.692Z,20.77
2022-11-29T21:03:13.672Z,19.93
2022-11-29T21:05:40.508Z,21.50
2022-11-29T21:08:07.405Z,21.57
2022-11-29T21:10:34.576Z,20.40
2022-11-29T21:13:01.749Z,20.03
2022-11-29T21:15:28.938Z,19.50
2022-11-29T21:17:56.004Z,19.73
2022-11-29T21:20:26.314Z,23.47
2022-11-29T21:23:14.046Z,23.07
2022-11-29T21:25:53.318Z,21.73
2022-11-29T21:28:24.574Z,22.00
2022-11-29T21:30:51.655Z,20.97
2022-11-29T21:33:18.636Z,22.87
2022-11-29T21:35:45.455Z,21.00
2022-11-29T21:38:17.269Z,21.80
2022-11-29T21:40:44.027Z,22.07
2022-11-29T21:43:10.792Z,20.83
2022-11-29T21:45:37.676Z,21.40
2022-11-29T21:48:24.998Z,21.90
2022-11-29T21:50:52.003Z,22.63
2022-11-29T21:53:18.763Z,21.50
2022-11-29T21:55:45.725Z,24.83
2022-11-29T21:58:12.496Z,23.33
2022-11-29T22:00:39.241Z,22.63
2022-11-29T22:03:06.069Z,22.43
2022-11-29T22:05:32.870Z,23.20
2022-11-29T22:07:59.727Z,22.00
2022-11-29T22:10:27.935Z,21.20
2022-11-29T22:12:54.705Z,22.37
2022-11-29T22:15:24.869Z,22.27
2022-11-29T22:17:52.302Z,20.73
2022-11-29T22:20:19.612Z,21.13
2022-11-29T22:22:48.437Z,20.10
2022-11-29T22:25:15.778Z,20.60
2022-11-29T22:27:42.858Z,19.03
2022-11-29T22:30:09.948Z,18.80
2022-11-29T22:32:36.670Z,18.90
2022-11-29T22:35:03.633Z,18.90
2022-11-29T22:37:30.382Z,20.70
2022-11-29T22:39:57.618Z,19.50
2022-11-29T22:42:24.460Z,19.93
2022-11-29T22:44:51.146Z,19.40
2022-11-29T22:47:17.868Z,20.40
2022-11-29T22:49:44.609Z,20.07
2022-11-29T22:52:11.736Z,18.90
2022-11-29T22:54:38.418Z,19.23
2022-11-29T22:57:05.302Z,20.63
2022-11-29T22:59:32.039Z,21.20
2022-11-29T23:01:58.839Z,20.00
2022-11-29T23:04:25.583Z,19.47
2022-11-29T23:06:52.395Z,19.80
2022-11-29T23:09:22.342Z,19.63
2022-11-29T23:11:54.086Z,21.27
2022-11-29T23:14:22.268Z,21.00
2022-11-29T23:16:49.207Z,20.27
2022-11-29T23:19:16.478Z,19.53
2022-11-29T23:21:45.625Z,20.47
2022-11-29T23:24:13.050Z,20.20
2022-11-29T23:26:43.372Z,19.63
2022-11-29T23:29:13.432Z,20.43
2022-11-29T23:31:40.941Z,20.87
2022-11-29T23:34:08.114Z,19.33
2022-11-29T23:36:35.047Z,21.13
2022-11-29T23:39:01.841Z,21.67
2022-11-29T23:41:28.600Z,20.90
2022-11-29T23:43:55.394Z,21.20
2022-11-29T23:46:23.943Z,22.27
2022-11-29T23:48:51.520Z,20.90
2022-11-29T23:51:19.094Z,20.97
2022-11-29T23:53:46.803Z,21.37
2022-11-29T23:56:15.586Z,20.90
2022-11-29T23:58:42.775Z,18.63
